This is the latest recevied weather packets stored in our database for station/object VK1KCM-5. If no packets are shown the sender has not sent any weather packets the latest 10 day(s).
| Time | Temp. | Humidity | Pressure | Rain* | Wind** | Luminosity | Snow |
|---|---|---|---|---|---|---|---|
| 1788075618 | 15° C | 69% | 1026.3 hPa | 0 mm | - | - | - |
| 1788075358 | 15° C | 69% | 1026.3 hPa | 0 mm | - | - | - |
| 1788075078 | 15.56° C | 69% | 1026 hPa | 0 mm | - | - | - |
| 1788074811 | 15.56° C | 68% | 1026.1 hPa | 0 mm | - | - | - |
| 1788074523 | 16.11° C | 68% | 1026 hPa | 0 mm | - | - | - |
| 1788074281 | 16.11° C | 68% | 1025.9 hPa | 0 mm | - | - | - |
| 1788074003 | 16.67° C | 68% | 1025.9 hPa | 0 mm | - | - | - |
| 1788073718 | 16.67° C | 68% | 1025.8 hPa | 0 mm | - | - | - |
| 1788073438 | 16.11° C | 70% | 1025.8 hPa | 0 mm | - | - | - |
| 1788073163 | 16.67° C | 69% | 1026 hPa | 0 mm | - | - | - |
| 1788072871 | 16.67° C | 69% | 1025.8 hPa | 0 mm | - | - | - |
| 1788072588 | 16.67° C | 68% | 1025.8 hPa | 0 mm | - | - | - |
| 1788072328 | 17.22° C | 67% | 1025.4 hPa | 0 mm | - | - | - |
| 1788072048 | 17.22° C | 67% | 1025.4 hPa | 0 mm | - | - | - |
| 1788071778 | 17.78° C | 65% | 1025.4 hPa | 0 mm | - | - | - |
| 1788071528 | 18.33° C | 63% | 1025.2 hPa | 0 mm | - | - | - |
| 1788071268 | 18.33° C | 63% | 1025.1 hPa | 0 mm | - | - | - |
| 1788070998 | 18.89° C | 60% | 1025 hPa | 0 mm | - | - | - |
| 1788070698 | 18.89° C | 61% | 1025 hPa | 0 mm | - | - | - |
| 1788070418 | 20° C | 57% | 1024.9 hPa | 0 mm | - | - | - |
| 1788070175 | 19.44° C | 58% | 1024.8 hPa | 0 mm | - | - | - |
| 1788069923 | 18.89° C | 59% | 1025.1 hPa | 0 mm | - | - | - |
| 1788069623 | 19.44° C | 58% | 1024.8 hPa | 0 mm | - | - | - |
| 1788069348 | 19.44° C | 58% | 1024.8 hPa | 0 mm | - | - | - |
| 1788069083 | 19.44° C | 57% | 1024.5 hPa | 0 mm | - | - | - |
* Rain latest hour (hover to see other rain measurements)
** Current wind speed in m/s (hover to see current wind gust speed)